Estació meteorològica de Susqueda - Veïnat del Far (La Selva, La Selva)

Consulta les dades en temps real de l'estació meteorològica de Susqueda - Veïnat del Far





Hora UTC 08:55
Temperatura 13.8 ºC
Humitat 69.0 %
Pressió 1012.3 hPa
Pluja 0.0 mm
Velocitat vent 1.6 km/h
Direcció vent N

Dades diàries 2026-05-08



Hora UTC (hivern +1h; estiu +2h)
Temperatura (ºC) Humitat (%) Pressió (hPa) Velocitat vent (km/h) Precipitació (mm)
Hora UTC Aire Humitat Pressió Vel. Dir. Vel. Max Dir. Intent. màx 5 min.
00:05 9.6 77.0 1011.8 0.0 N 0.0 0.0
00:10 9.7 76.0 1011.7 0.0 N 0.0 0.0
00:15 9.7 76.0 1011.6 0.0 N 0.0 0.0
00:20 9.6 78.0 1011.5 0.0 N 0.0 0.0
00:25 9.6 78.0 1011.5 0.0 N 0.0 0.0
00:30 9.6 78.0 1011.5 0.0 N 0.0 0.0
00:35 9.6 78.0 1011.5 0.0 N 0.0 0.0
00:40 9.6 78.0 1011.4 0.0 N 0.0 0.0
00:45 9.6 79.0 1011.4 0.0 N 0.0 0.0
00:50 9.4 81.0 1011.4 0.0 N 0.0 0.0
00:55 9.3 82.0 1011.3 0.0 N 0.0 0.0
01:00 9.2 83.0 1011.4 0.0 N 0.0 0.0
01:05 9.3 84.0 1011.3 0.0 N 0.0 0.0
01:10 9.2 84.0 1011.1 0.0 N 0.0 0.0
01:15 9.1 85.0 1011.2 0.0 N 0.0 0.0
01:20 9.1 87.0 1011.1 0.0 N 0.0 0.0
01:25 8.9 88.0 1010.9 0.0 N 0.0 0.0
01:30 8.9 89.0 1010.8 0.0 N 0.0 0.0
01:35 8.9 89.0 1010.8 0.0 N 0.0 0.0
01:40 8.9 89.0 1010.8 0.0 N 0.0 0.0
01:45 8.8 89.0 1010.8 0.0 N 0.0 0.0
01:50 8.8 89.0 1010.6 0.0 N 0.0 0.0
01:55 8.8 89.0 1010.5 0.0 N 0.0 0.0
02:00 8.8 89.0 1010.6 0.0 N 0.0 0.0
02:05 8.7 89.0 1010.5 0.0 N 0.0 0.0
02:10 8.7 89.0 1010.4 0.0 N 0.0 0.0
02:20 8.6 90.0 1010.4 0.0 N 0.0 0.0
02:25 8.5 90.0 1010.3 0.0 N 0.0 0.0
02:30 8.5 89.0 1010.4 0.0 N 0.0 0.0
02:35 8.6 89.0 1010.4 0.0 N 0.0 0.0
02:40 8.6 88.0 1010.4 0.0 N 0.0 0.0
02:50 8.7 85.0 1010.3 0.0 N 0.0 0.0
02:55 8.8 85.0 1010.4 0.0 N 0.0 0.0
03:00 8.8 83.0 1010.4 0.0 N 0.0 0.0
03:05 8.8 83.0 1010.3 0.0 N 0.0 0.0
03:10 8.8 84.0 1010.3 0.0 N 0.0 0.0
03:15 8.8 84.0 1010.3 0.0 N 0.0 0.0
03:20 8.8 84.0 1010.3 0.0 N 0.0 0.0
03:30 8.9 83.0 1010.3 0.0 N 0.0 0.0
03:35 8.9 83.0 1010.2 0.0 N 0.0 0.0
03:40 9.0 82.0 1010.2 0.0 N 0.0 0.0
03:45 9.1 82.0 1010.2 0.0 N 0.0 0.0
03:50 9.1 82.0 1010.3 0.0 N 0.0 0.0
03:55 9.0 82.0 1010.3 0.0 N 0.0 0.0
04:00 8.9 82.0 1010.3 0.0 N 0.0 0.0
04:05 8.9 82.0 1010.3 0.0 N 0.0 0.0
04:10 9.0 82.0 1010.4 0.0 N 0.0 0.0
04:15 8.9 82.0 1010.4 0.0 N 0.0 0.0
04:20 8.9 82.0 1010.4 0.0 N 0.0 0.0
04:25 8.9 82.0 1010.4 0.0 N 0.0 0.0
04:30 9.0 82.0 1010.5 0.0 N 0.0 0.0
04:35 9.1 81.0 1010.5 0.0 N 0.0 0.0
04:40 9.2 81.0 1010.5 0.0 N 0.0 0.0
04:45 9.2 80.0 1010.5 0.0 N 0.0 0.0
04:50 9.3 79.0 1010.6 0.0 N 0.0 0.0
04:55 9.3 80.0 1010.6 0.0 N 0.0 0.0
05:00 9.2 80.0 1010.6 0.0 N 0.0 0.0
05:05 9.2 80.0 1010.7 0.0 N 0.0 0.0
05:10 9.2 80.0 1010.8 0.0 N 0.0 0.0
05:15 9.3 79.0 1010.8 0.0 N 0.0 0.0
05:20 9.4 79.0 1010.7 0.0 N 0.0 0.0
05:25 9.4 79.0 1010.8 0.0 N 0.0 0.0
05:30 9.3 78.0 1010.9 0.0 N 0.0 0.0
05:35 9.4 78.0 1011.0 0.0 N 0.0 0.0
05:40 9.5 78.0 1011.1 0.0 N 0.0 0.0
05:45 9.5 78.0 1011.1 0.0 N 0.0 0.0
05:50 9.5 77.0 1011.1 0.0 N 0.0 0.0
05:50 9.4 78.0 1011.1 0.0 N 0.0 0.0
06:00 9.5 77.0 1011.2 0.0 N 0.0 0.0
06:05 9.7 76.0 1011.3 0.0 N 0.0 0.0
06:10 9.8 75.0 1011.4 0.0 N 0.0 0.0
06:15 9.8 75.0 1011.6 0.0 N 0.0 0.0
06:20 9.7 76.0 1011.7 0.0 N 0.0 0.0
06:30 9.6 77.0 1011.7 0.0 N 0.0 0.0
06:35 9.8 76.0 1011.9 0.0 N 0.0 0.0
06:40 9.8 76.0 1011.8 0.0 N 0.0 0.0
06:45 9.8 76.0 1011.9 0.0 N 0.0 0.0
06:50 9.9 77.0 1011.9 0.0 N 0.0 0.0
06:55 9.9 77.0 1011.9 0.0 N 0.0 0.0
07:00 10.0 77.0 1011.9 0.0 N 0.0 0.0
07:05 10.1 77.0 1012.0 0.0 N 0.0 0.0
07:10 10.1 77.0 1011.9 0.0 N 0.0 0.0
07:15 10.2 76.0 1012.1 0.0 N 0.0 0.0
07:20 10.2 76.0 1012.0 0.0 N 0.0 0.0
07:25 10.6 76.0 1011.8 0.0 N 0.0 0.0
07:30 10.8 74.0 1012.0 0.0 N 0.0 0.0
07:35 11.0 74.0 1012.0 0.0 N 0.0 0.0
07:40 11.3 72.0 1012.1 0.0 N 0.0 0.0
07:45 11.6 72.0 1011.9 0.0 N 0.0 0.0
07:50 11.7 72.0 1012.1 0.0 N 0.0 0.0
07:55 11.7 73.0 1012.2 0.0 N 0.0 0.0
08:00 11.6 71.0 1012.0 0.0 N 0.0 0.0
08:05 11.8 74.0 1012.2 0.0 N 0.0 0.0
08:10 11.9 74.0 1012.1 0.0 N 0.0 0.0
08:15 12.2 74.0 1012.1 0.0 N 0.0 0.0
08:20 12.6 73.0 1012.2 0.0 N 0.0 0.0
08:25 12.9 72.0 1012.1 0.0 N 0.0 0.0
08:30 13.2 70.0 1012.0 0.0 N 0.0 0.0
08:35 13.4 70.0 1012.2 1.6 N 3.2 0.0
08:40 13.5 69.0 1012.1 3.2 N 3.2 0.0
08:45 13.6 69.0 1012.3 1.6 N 4.8 0.0
08:50 13.7 69.0 1012.2 1.6 N 4.8 0.0
08:55 13.8 69.0 1012.3 1.6 N 4.8 0.0
Màxima 13.8 90.0 1012.3 3.2 N 4.8 0.0
Mínima 8.5 69.0 1010.2
Total 0.0